createdAt,value
2023-09-13T00:00:56.718Z,59.79
2023-09-13T00:02:58.395Z,59.51
2023-09-13T00:05:00.009Z,59.39
2023-09-13T00:07:01.589Z,59.74
2023-09-13T00:09:04.395Z,59.53
2023-09-13T00:11:06.209Z,59.45
2023-09-13T00:13:07.723Z,59.63
2023-09-13T00:15:09.455Z,59.50
2023-09-13T00:17:10.975Z,59.58
2023-09-13T00:19:12.903Z,59.44
2023-09-13T00:21:14.635Z,59.44
2023-09-13T00:23:16.202Z,59.64
2023-09-13T00:25:17.798Z,59.83
2023-09-13T00:27:19.409Z,59.79
2023-09-13T00:29:20.918Z,59.62
2023-09-13T00:31:22.680Z,59.56
2023-09-13T00:33:24.771Z,59.79
2023-09-13T00:35:26.232Z,59.75
2023-09-13T00:37:27.684Z,59.89
2023-09-13T00:39:29.194Z,59.30
2023-09-13T00:41:31.898Z,59.61
2023-09-13T00:43:34.318Z,59.80
2023-09-13T00:45:35.919Z,59.65
2023-09-13T00:47:37.749Z,59.52
2023-09-13T00:49:39.780Z,59.75
2023-09-13T00:51:41.414Z,59.68
2023-09-13T00:53:44.062Z,59.78
2023-09-13T00:55:47.675Z,59.97
2023-09-13T00:57:50.889Z,59.93
2023-09-13T00:59:52.512Z,59.65
2023-09-13T01:01:54.127Z,59.88
2023-09-13T01:03:56.978Z,59.73
2023-09-13T01:05:58.675Z,59.95
2023-09-13T01:08:00.287Z,59.79
2023-09-13T01:10:02.296Z,59.87
2023-09-13T01:12:04.855Z,59.82
2023-09-13T01:14:06.469Z,59.80
2023-09-13T01:16:18.289Z,59.79
2023-09-13T01:18:26.772Z,59.95
2023-09-13T01:20:45.634Z,59.56
2023-09-13T01:23:07.172Z,59.76
2023-09-13T01:25:27.499Z,59.62
2023-09-13T01:27:28.933Z,59.47
2023-09-13T01:29:32.283Z,59.56
2023-09-13T01:31:34.548Z,59.77
2023-09-13T01:33:36.509Z,59.58
2023-09-13T01:35:38.492Z,59.85
2023-09-13T01:37:40.173Z,59.87
2023-09-13T01:39:42.059Z,59.87
2023-09-13T01:42:03.849Z,59.59
2023-09-13T01:44:06.564Z,59.90
2023-09-13T01:46:08.959Z,59.53
2023-09-13T01:48:11.858Z,59.69
2023-09-13T01:50:14.874Z,59.57
2023-09-13T01:52:16.521Z,59.89
2023-09-13T01:54:20.839Z,59.91
2023-09-13T01:56:22.598Z,59.83
2023-09-13T01:58:24.156Z,59.76
2023-09-13T02:00:25.818Z,59.98
2023-09-13T02:02:27.552Z,59.63
2023-09-13T02:04:33.993Z,59.99
2023-09-13T02:06:35.740Z,60.05
2023-09-13T02:08:38.403Z,60.02
2023-09-13T02:10:40.155Z,60.01
2023-09-13T02:12:41.651Z,59.80
2023-09-13T02:14:43.169Z,59.58
2023-09-13T02:16:44.959Z,59.69
2023-09-13T02:18:47.045Z,59.98
2023-09-13T02:20:48.597Z,59.94
2023-09-13T02:22:50.117Z,59.91
2023-09-13T02:24:51.711Z,59.75
2023-09-13T02:26:59.681Z,59.89
2023-09-13T02:29:01.178Z,59.76
2023-09-13T02:31:02.725Z,60.04
2023-09-13T02:33:04.709Z,59.91
2023-09-13T02:35:06.322Z,59.93
2023-09-13T02:37:07.848Z,60.00
2023-09-13T02:39:28.081Z,59.82
2023-09-13T02:41:29.532Z,59.86
2023-09-13T02:43:31.078Z,59.76
2023-09-13T02:45:33.169Z,60.03
2023-09-13T02:47:34.654Z,59.67
2023-09-13T02:49:36.143Z,59.54
2023-09-13T02:51:37.580Z,59.83
2023-09-13T02:53:39.112Z,59.75
2023-09-13T02:55:40.647Z,59.91
2023-09-13T02:57:42.296Z,59.79
2023-09-13T02:59:43.735Z,59.70
2023-09-13T03:01:48.892Z,59.72
2023-09-13T03:03:50.727Z,59.45
2023-09-13T03:05:52.342Z,59.70
2023-09-13T03:07:55.582Z,59.63
2023-09-13T03:09:58.858Z,59.96
2023-09-13T03:12:00.434Z,59.76
2023-09-13T03:14:01.899Z,59.64
2023-09-13T03:16:10.841Z,59.67
2023-09-13T03:18:13.588Z,59.55
2023-09-13T03:20:15.160Z,59.73
2023-09-13T03:22:16.991Z,60.03
2023-09-13T03:24:18.523Z,59.49
2023-09-13T03:26:21.275Z,59.80
2023-09-13T03:28:22.992Z,59.73
2023-09-13T03:30:24.714Z,59.91
2023-09-13T03:32:26.321Z,59.99
2023-09-13T03:34:27.816Z,59.99
2023-09-13T03:36:30.049Z,59.75
2023-09-13T03:38:31.655Z,59.86
2023-09-13T03:40:33.210Z,60.03
2023-09-13T03:42:34.904Z,60.04
2023-09-13T03:44:36.493Z,60.04
2023-09-13T03:46:38.265Z,60.11
2023-09-13T03:48:40.107Z,59.90
2023-09-13T03:50:41.756Z,59.94
2023-09-13T03:52:43.226Z,60.07
2023-09-13T03:54:44.750Z,60.01
2023-09-13T03:56:46.346Z,59.77
2023-09-13T03:58:47.888Z,60.05
2023-09-13T04:00:49.418Z,60.01
2023-09-13T04:02:51.344Z,59.91
2023-09-13T04:04:52.875Z,59.77
2023-09-13T04:06:54.604Z,59.84
2023-09-13T04:08:56.216Z,60.02
2023-09-13T04:10:57.903Z,59.87
2023-09-13T04:12:59.633Z,60.00
2023-09-13T04:15:01.946Z,59.86
2023-09-13T04:17:03.527Z,60.02
2023-09-13T04:19:05.145Z,59.95
2023-09-13T04:21:06.689Z,59.87
2023-09-13T04:23:08.486Z,59.60
2023-09-13T04:25:10.183Z,59.69
2023-09-13T04:27:11.824Z,59.69
2023-09-13T04:29:13.399Z,59.86
2023-09-13T04:31:14.929Z,59.92
2023-09-13T04:33:16.523Z,59.92
2023-09-13T04:35:18.300Z,59.96
2023-09-13T04:37:20.466Z,59.96
2023-09-13T04:39:21.922Z,59.77
2023-09-13T04:41:23.376Z,60.02
2023-09-13T04:43:25.239Z,59.76
2023-09-13T04:45:27.090Z,59.78
2023-09-13T04:47:28.653Z,59.86
2023-09-13T04:49:30.748Z,60.09
2023-09-13T04:51:32.402Z,59.96
2023-09-13T04:53:34.688Z,60.01
2023-09-13T04:55:36.275Z,59.84
2023-09-13T04:57:38.144Z,60.03
2023-09-13T04:59:43.832Z,59.85
2023-09-13T05:01:45.703Z,59.85
2023-09-13T05:03:48.911Z,60.22
2023-09-13T05:05:50.994Z,59.96
2023-09-13T05:07:52.504Z,59.88
2023-09-13T05:09:54.047Z,59.95
2023-09-13T05:11:55.488Z,59.68
2023-09-13T05:14:12.834Z,59.88
2023-09-13T05:16:15.071Z,60.05
2023-09-13T05:18:16.758Z,59.98
2023-09-13T05:20:18.308Z,59.80
2023-09-13T05:22:19.861Z,59.95
2023-09-13T05:24:21.329Z,59.64
2023-09-13T05:26:22.862Z,59.78
2023-09-13T05:28:25.618Z,59.71
2023-09-13T05:30:29.580Z,59.91
2023-09-13T05:32:31.359Z,59.75
2023-09-13T05:34:33.029Z,59.77
2023-09-13T05:36:34.507Z,59.52
2023-09-13T05:38:36.282Z,59.78
2023-09-13T05:40:37.966Z,59.55
2023-09-13T05:42:39.506Z,59.71
2023-09-13T05:44:40.970Z,59.88
2023-09-13T05:46:42.490Z,59.81
2023-09-13T05:48:44.021Z,59.67
2023-09-13T05:50:45.666Z,59.63
2023-09-13T05:52:47.220Z,59.85
2023-09-13T05:54:48.792Z,59.79
2023-09-13T05:56:54.591Z,59.75
2023-09-13T05:58:56.041Z,59.78
2023-09-13T06:00:58.958Z,59.93
2023-09-13T06:03:00.629Z,59.77
2023-09-13T06:05:02.628Z,59.75
2023-09-13T06:07:04.424Z,60.20
2023-09-13T06:09:05.921Z,59.88
2023-09-13T06:11:07.456Z,59.64
2023-09-13T06:13:09.119Z,59.97
2023-09-13T06:15:10.798Z,59.90
2023-09-13T06:17:12.357Z,60.01
2023-09-13T06:19:13.912Z,60.04
2023-09-13T06:21:15.872Z,59.73
2023-09-13T06:23:33.855Z,59.88
2023-09-13T06:25:35.687Z,59.76
2023-09-13T06:27:37.227Z,59.64
2023-09-13T06:29:38.865Z,59.99
2023-09-13T06:31:56.053Z,59.78
2023-09-13T06:36:08.106Z,59.78
2023-09-13T06:38:12.398Z,59.93
2023-09-13T06:40:14.427Z,59.79
2023-09-13T06:42:27.974Z,59.93
2023-09-13T06:44:44.390Z,59.80
2023-09-13T06:46:54.000Z,59.38
2023-09-13T06:49:02.643Z,59.67
2023-09-13T06:53:26.182Z,59.64
2023-09-13T06:55:32.328Z,59.71
2023-09-13T06:57:36.874Z,59.87
2023-09-13T06:59:50.830Z,59.64
2023-09-13T07:04:02.106Z,59.95
2023-09-13T07:06:06.491Z,59.93
2023-09-13T07:08:08.056Z,59.87
2023-09-13T07:10:09.758Z,59.59
2023-09-13T07:12:14.345Z,59.74
2023-09-13T07:14:16.028Z,59.75
2023-09-13T07:16:17.537Z,59.71
2023-09-13T07:18:19.115Z,59.81
2023-09-13T07:20:20.793Z,59.69
2023-09-13T07:22:22.258Z,59.97
2023-09-13T07:24:23.732Z,59.94
2023-09-13T07:26:25.205Z,60.01
2023-09-13T07:28:27.513Z,59.96
2023-09-13T07:30:29.468Z,60.07
2023-09-13T07:32:31.134Z,59.78
2023-09-13T07:34:33.025Z,59.92
2023-09-13T07:36:34.676Z,59.94
2023-09-13T07:38:36.313Z,59.82
2023-09-13T07:40:40.832Z,59.68
2023-09-13T07:42:42.307Z,59.74
2023-09-13T07:44:43.937Z,59.75
2023-09-13T07:46:45.564Z,59.92
2023-09-13T07:48:47.202Z,59.95
2023-09-13T07:50:48.703Z,59.57
2023-09-13T07:54:56.212Z,59.88
2023-09-13T07:56:57.709Z,59.51
2023-09-13T07:58:59.339Z,59.80
2023-09-13T08:01:00.945Z,59.32
2023-09-13T08:03:04.058Z,59.44
2023-09-13T08:05:05.884Z,59.56
2023-09-13T08:07:07.559Z,59.38
2023-09-13T08:09:09.858Z,59.33
2023-09-13T08:11:11.403Z,59.66
2023-09-13T08:13:13.066Z,59.76
2023-09-13T08:15:15.115Z,59.47
2023-09-13T08:17:16.783Z,60.71
2023-09-13T08:19:18.310Z,60.70
2023-09-13T08:21:19.751Z,59.75
2023-09-13T08:23:21.287Z,60.69
2023-09-13T08:25:23.232Z,60.86
2023-09-13T08:27:24.768Z,61.06
2023-09-13T08:29:26.223Z,60.43
2023-09-13T08:31:27.902Z,60.14
2023-09-13T08:33:29.444Z,60.11
2023-09-13T08:35:31.412Z,59.68
2023-09-13T08:37:33.024Z,59.80
2023-09-13T08:39:34.572Z,59.28
2023-09-13T08:41:36.326Z,59.08
2023-09-13T08:43:39.608Z,58.84
2023-09-13T08:45:41.787Z,58.69
2023-09-13T08:47:56.969Z,58.36
2023-09-13T08:50:00.116Z,58.30
2023-09-13T08:52:01.968Z,58.11
2023-09-13T08:54:04.287Z,57.84
2023-09-13T08:56:07.570Z,57.77
2023-09-13T08:58:09.226Z,57.45
2023-09-13T09:00:10.966Z,57.51
2023-09-13T09:02:16.667Z,57.69
2023-09-13T09:04:19.283Z,57.78
2023-09-13T09:06:21.262Z,57.41
2023-09-13T09:08:24.944Z,57.39
2023-09-13T09:12:33.609Z,57.26
2023-09-13T09:14:37.741Z,57.16
2023-09-13T09:16:40.379Z,57.26
2023-09-13T09:18:43.733Z,56.65
2023-09-13T09:24:49.240Z,56.49
2023-09-13T09:26:51.918Z,56.56
2023-09-13T09:28:55.540Z,56.49
2023-09-13T09:37:16.991Z,56.40
2023-09-13T09:39:18.471Z,57.34
2023-09-13T09:41:31.250Z,56.55
2023-09-13T09:43:32.861Z,56.45
2023-09-13T09:47:42.906Z,56.14
2023-09-13T09:49:45.144Z,56.21
2023-09-13T09:51:46.745Z,55.80
2023-09-13T09:53:48.568Z,56.17
2023-09-13T09:55:51.456Z,56.49
2023-09-13T10:00:00.623Z,56.36
2023-09-13T10:02:02.521Z,55.91
2023-09-13T10:04:11.150Z,56.06
2023-09-13T10:06:13.588Z,55.89
2023-09-13T10:08:15.071Z,56.45
2023-09-13T10:10:35.038Z,56.00
2023-09-13T10:12:46.066Z,55.96
2023-09-13T10:14:47.692Z,56.30
2023-09-13T10:16:52.995Z,56.17
2023-09-13T10:18:55.597Z,56.31
2023-09-13T10:20:58.072Z,55.84
2023-09-13T10:23:01.609Z,56.06
2023-09-13T10:25:05.127Z,56.00
2023-09-13T10:27:07.932Z,55.76
2023-09-13T10:29:14.015Z,55.59
2023-09-13T10:31:17.489Z,55.75
2023-09-13T10:33:19.841Z,55.89
2023-09-13T10:35:21.745Z,55.57
2023-09-13T10:37:36.311Z,55.84
2023-09-13T10:39:44.806Z,55.73
2023-09-13T10:41:55.529Z,55.54
2023-09-13T10:43:58.402Z,55.17
2023-09-13T10:46:02.234Z,55.35
2023-09-13T10:48:04.848Z,55.16
2023-09-13T10:50:07.854Z,55.39
2023-09-13T10:52:09.743Z,55.05
2023-09-13T10:54:11.802Z,54.95
2023-09-13T10:56:16.094Z,55.76
2023-09-13T10:58:22.023Z,55.06
2023-09-13T11:00:27.385Z,55.16
2023-09-13T11:02:29.266Z,55.14
2023-09-13T11:04:31.017Z,55.43
2023-09-13T11:06:34.384Z,55.52
2023-09-13T11:08:35.942Z,54.48
2023-09-13T11:10:37.911Z,54.72
2023-09-13T11:12:40.227Z,55.13
2023-09-13T11:14:48.278Z,54.78
2023-09-13T11:16:49.837Z,54.75
2023-09-13T11:18:52.127Z,54.42
2023-09-13T11:20:53.731Z,55.00
2023-09-13T11:25:28.717Z,54.97
2023-09-13T11:27:32.769Z,55.08
2023-09-13T11:29:39.542Z,54.80
2023-09-13T11:31:58.965Z,54.57
2023-09-13T11:34:03.492Z,54.50
2023-09-13T11:36:05.739Z,54.33
2023-09-13T11:38:08.411Z,54.99
2023-09-13T11:40:12.729Z,54.74
2023-09-13T11:42:25.805Z,54.61
2023-09-13T11:44:34.589Z,54.59
2023-09-13T11:46:37.194Z,54.75
2023-09-13T11:48:56.825Z,54.81
2023-09-13T11:51:23.891Z,55.05
2023-09-13T11:53:27.584Z,54.76
2023-09-13T11:55:36.734Z,54.52
2023-09-13T12:00:01.603Z,54.27
2023-09-13T12:02:04.701Z,54.19
2023-09-13T12:06:31.321Z,54.18
2023-09-13T12:08:38.090Z,54.18
2023-09-13T12:10:41.444Z,54.27
2023-09-13T12:12:50.370Z,54.16
2023-09-13T12:15:02.139Z,54.14
2023-09-13T12:17:04.881Z,53.98
2023-09-13T12:19:07.886Z,53.84
2023-09-13T12:21:10.999Z,53.97
2023-09-13T12:23:16.473Z,53.76
2023-09-13T12:25:18.057Z,53.73
2023-09-13T12:27:19.615Z,53.88
2023-09-13T12:29:22.992Z,53.69
2023-09-13T12:31:25.635Z,54.01
2023-09-13T12:33:29.842Z,54.44
2023-09-13T12:35:32.484Z,54.50
2023-09-13T12:37:34.066Z,53.92
2023-09-13T12:39:35.721Z,53.90
2023-09-13T12:41:37.980Z,54.31
2023-09-13T12:43:41.904Z,54.09
2023-09-13T12:45:43.452Z,54.05
2023-09-13T12:47:45.791Z,54.06
2023-09-13T12:49:47.690Z,53.73
2023-09-13T12:51:50.463Z,53.84
2023-09-13T12:53:52.391Z,54.02
2023-09-13T12:55:54.202Z,54.08
2023-09-13T12:58:01.308Z,54.33
2023-09-13T13:00:03.416Z,54.35
2023-09-13T13:02:04.964Z,54.38
2023-09-13T13:04:08.201Z,54.53
2023-09-13T13:06:10.063Z,54.24
2023-09-13T13:08:11.658Z,53.64
2023-09-13T13:10:16.912Z,53.60
2023-09-13T13:12:18.457Z,53.56
2023-09-13T13:14:21.032Z,54.20
2023-09-13T13:16:39.470Z,53.67
2023-09-13T13:18:56.368Z,53.89
2023-09-13T13:21:08.002Z,53.86
2023-09-13T13:23:10.766Z,53.66
2023-09-13T13:25:12.344Z,53.39
2023-09-13T13:27:14.111Z,53.91
2023-09-13T13:29:15.899Z,54.27
2023-09-13T13:31:19.559Z,53.83
2023-09-13T13:33:21.015Z,53.80
2023-09-13T13:35:22.616Z,53.67
2023-09-13T13:37:24.092Z,54.05
2023-09-13T13:39:25.741Z,54.05
2023-09-13T13:41:27.440Z,54.11
2023-09-13T13:43:29.021Z,53.64
2023-09-13T13:45:30.580Z,53.55
2023-09-13T13:47:32.176Z,53.56
2023-09-13T13:49:33.906Z,53.79
2023-09-13T13:51:35.457Z,53.60
2023-09-13T13:53:37.160Z,53.41
2023-09-13T13:55:39.237Z,53.30
2023-09-13T13:57:42.194Z,53.25
2023-09-13T13:59:43.905Z,53.87
2023-09-13T14:01:48.615Z,53.33
2023-09-13T14:03:50.551Z,53.65
2023-09-13T14:05:52.836Z,53.66
2023-09-13T14:07:54.299Z,53.63
2023-09-13T14:09:55.932Z,53.64
2023-09-13T14:11:57.683Z,53.71
2023-09-13T14:13:59.395Z,53.36
2023-09-13T14:16:01.164Z,53.64
2023-09-13T14:18:03.817Z,53.50
2023-09-13T14:20:06.028Z,53.69
2023-09-13T14:22:07.800Z,53.45
2023-09-13T14:24:09.283Z,53.46
2023-09-13T14:26:10.788Z,53.88
2023-09-13T14:28:15.215Z,53.95
2023-09-13T14:30:17.227Z,53.87
2023-09-13T14:32:19.145Z,53.55
2023-09-13T14:34:22.194Z,53.75
2023-09-13T14:36:23.695Z,53.51
2023-09-13T14:38:25.228Z,53.44
2023-09-13T14:40:28.356Z,53.36
2023-09-13T14:42:30.096Z,53.60
2023-09-13T14:44:31.766Z,53.31
2023-09-13T14:46:33.537Z,52.84
2023-09-13T14:48:35.278Z,52.86
2023-09-13T14:50:37.297Z,52.77
2023-09-13T14:52:38.953Z,52.52
2023-09-13T14:54:40.880Z,52.86
2023-09-13T14:56:42.419Z,52.46
2023-09-13T14:58:44.278Z,53.35
2023-09-13T15:00:46.251Z,53.56
2023-09-13T15:02:48.013Z,53.10
2023-09-13T15:04:51.569Z,53.22
2023-09-13T15:06:53.834Z,53.16
2023-09-13T15:08:57.711Z,52.98
2023-09-13T15:10:59.512Z,53.25
2023-09-13T15:13:02.460Z,52.96
2023-09-13T15:15:05.118Z,52.90
2023-09-13T15:17:07.425Z,52.43
2023-09-13T15:19:09.135Z,51.95
2023-09-13T15:21:10.644Z,51.60
2023-09-13T15:23:12.122Z,51.85
2023-09-13T15:25:13.790Z,52.03
2023-09-13T15:27:16.718Z,52.13
2023-09-13T15:29:18.298Z,52.43
2023-09-13T15:31:19.817Z,52.15
2023-09-13T15:33:21.436Z,52.40
2023-09-13T15:35:23.238Z,52.31
2023-09-13T15:37:24.715Z,52.35
2023-09-13T15:39:26.356Z,52.25
2023-09-13T15:41:27.906Z,52.21
2023-09-13T15:43:29.475Z,52.37
2023-09-13T15:45:33.306Z,52.76
2023-09-13T15:47:35.068Z,52.77
2023-09-13T15:49:36.584Z,52.89
2023-09-13T15:51:38.171Z,52.73
2023-09-13T15:53:40.330Z,52.97
2023-09-13T15:55:41.941Z,52.93
2023-09-13T15:57:43.690Z,53.51
2023-09-13T15:59:45.351Z,53.90
2023-09-13T16:01:46.940Z,54.10
2023-09-13T16:03:48.568Z,53.93
2023-09-13T16:05:50.355Z,54.49
2023-09-13T16:07:51.819Z,54.64
2023-09-13T16:09:53.330Z,54.85
2023-09-13T16:11:54.845Z,54.77
2023-09-13T16:13:56.278Z,54.95
2023-09-13T16:16:00.643Z,55.17
2023-09-13T16:18:02.461Z,55.32
2023-09-13T16:20:04.494Z,55.45
2023-09-13T16:22:06.018Z,55.21
2023-09-13T16:24:07.597Z,55.43
2023-09-13T16:26:09.150Z,55.71
2023-09-13T16:28:10.630Z,55.65
2023-09-13T16:30:18.282Z,56.03
2023-09-13T16:32:20.196Z,55.89
2023-09-13T16:34:21.742Z,55.85
2023-09-13T16:36:23.230Z,56.19
2023-09-13T16:38:24.770Z,56.14
2023-09-13T16:40:26.246Z,55.86
2023-09-13T16:42:27.837Z,56.17
2023-09-13T16:44:29.351Z,56.11
2023-09-13T16:46:31.027Z,56.04
2023-09-13T16:48:34.930Z,56.38
2023-09-13T16:50:37.003Z,56.44
2023-09-13T16:52:38.767Z,56.52
2023-09-13T16:54:40.676Z,56.28
2023-09-13T16:56:42.218Z,56.66
2023-09-13T16:58:43.879Z,56.55
2023-09-13T17:00:45.722Z,56.62
2023-09-13T17:02:47.384Z,56.39
2023-09-13T17:04:48.891Z,56.64
2023-09-13T17:06:50.494Z,56.48
2023-09-13T17:08:52.028Z,56.55
2023-09-13T17:10:53.541Z,56.74
2023-09-13T17:12:55.777Z,56.53
2023-09-13T17:14:57.741Z,56.63
2023-09-13T17:17:01.467Z,56.72
2023-09-13T17:19:03.187Z,56.78
2023-09-13T17:21:04.870Z,56.66
2023-09-13T17:23:06.464Z,56.78
2023-09-13T17:25:08.159Z,56.87
2023-09-13T17:27:10.544Z,56.65
2023-09-13T17:29:12.438Z,56.81
2023-09-13T17:31:13.986Z,56.86
2023-09-13T17:33:15.869Z,57.00
2023-09-13T17:35:17.398Z,57.03
2023-09-13T17:37:19.267Z,56.94
2023-09-13T17:39:20.989Z,57.00
2023-09-13T17:41:22.773Z,56.95
2023-09-13T17:43:24.572Z,56.83
2023-09-13T17:45:26.520Z,56.97
2023-09-13T17:47:28.121Z,57.04
2023-09-13T17:49:29.857Z,56.93
2023-09-13T17:51:31.479Z,57.16
2023-09-13T17:53:33.482Z,57.12
2023-09-13T17:55:35.407Z,56.90
2023-09-13T17:57:37.968Z,56.90
2023-09-13T17:59:40.014Z,57.21
2023-09-13T18:01:45.415Z,57.05
2023-09-13T18:03:47.248Z,57.05
2023-09-13T18:05:48.816Z,56.92
2023-09-13T18:07:55.745Z,56.94
2023-09-13T18:09:57.793Z,56.84
2023-09-13T18:11:59.260Z,57.16
2023-09-13T18:14:01.056Z,57.31
2023-09-13T18:16:03.296Z,56.91
2023-09-13T18:18:05.879Z,57.16
2023-09-13T18:20:09.095Z,57.04
2023-09-13T18:22:11.176Z,57.17
2023-09-13T18:24:15.708Z,57.15
2023-09-13T18:26:19.596Z,57.39
2023-09-13T18:28:21.065Z,57.36
2023-09-13T18:30:22.572Z,57.06
2023-09-13T18:32:24.106Z,57.68
2023-09-13T18:34:28.710Z,57.24
2023-09-13T18:36:30.355Z,57.41
2023-09-13T18:38:32.170Z,57.25
2023-09-13T18:40:36.259Z,57.52
2023-09-13T18:42:38.056Z,57.80
2023-09-13T18:44:39.687Z,57.53
2023-09-13T18:46:41.357Z,57.72
2023-09-13T18:48:43.662Z,57.79
2023-09-13T18:50:53.898Z,58.07
2023-09-13T18:52:55.709Z,57.68
2023-09-13T18:54:57.277Z,57.62
2023-09-13T18:56:58.762Z,58.08
2023-09-13T18:59:00.471Z,57.80
2023-09-13T19:01:02.831Z,58.13
2023-09-13T19:03:04.693Z,57.69
2023-09-13T19:05:06.307Z,57.89
2023-09-13T19:07:10.544Z,58.17
2023-09-13T19:09:12.713Z,58.06
2023-09-13T19:11:14.888Z,57.90
2023-09-13T19:13:18.254Z,58.06
2023-09-13T19:15:19.844Z,58.23
2023-09-13T19:17:21.392Z,58.03
2023-09-13T19:19:24.939Z,58.26
2023-09-13T19:21:26.551Z,58.12
2023-09-13T19:23:28.713Z,58.02
2023-09-13T19:25:30.190Z,58.39
2023-09-13T19:27:31.869Z,58.41
2023-09-13T19:29:33.484Z,58.40
2023-09-13T19:31:35.089Z,58.35
2023-09-13T19:33:36.761Z,58.33
2023-09-13T19:35:39.601Z,58.46
2023-09-13T19:37:41.100Z,58.21
2023-09-13T19:39:43.271Z,58.42
2023-09-13T19:41:44.824Z,58.30
2023-09-13T19:43:46.437Z,58.41
2023-09-13T19:45:50.563Z,58.33
2023-09-13T19:47:53.070Z,58.42
2023-09-13T19:49:55.823Z,58.35
2023-09-13T19:51:57.449Z,58.43
2023-09-13T19:53:58.911Z,58.49
2023-09-13T19:56:00.801Z,58.67
2023-09-13T19:58:03.181Z,58.39
2023-09-13T20:00:06.059Z,58.79
2023-09-13T20:02:07.592Z,58.70
2023-09-13T20:04:09.332Z,58.76
2023-09-13T20:06:11.861Z,58.61
2023-09-13T20:08:13.362Z,58.65
2023-09-13T20:10:15.405Z,58.88
2023-09-13T20:12:16.911Z,58.96
2023-09-13T20:14:18.421Z,58.51
2023-09-13T20:16:20.102Z,58.52
2023-09-13T20:18:21.600Z,58.45
2023-09-13T20:20:23.107Z,58.43
2023-09-13T20:22:25.607Z,58.74
2023-09-13T20:24:27.183Z,58.41
2023-09-13T20:26:28.785Z,58.65
2023-09-13T20:28:31.375Z,58.34
2023-09-13T20:30:33.180Z,58.42
2023-09-13T20:32:36.243Z,58.69
2023-09-13T20:34:37.856Z,58.75
2023-09-13T20:36:39.506Z,58.35
2023-09-13T20:38:41.013Z,58.79
2023-09-13T20:40:42.817Z,58.78
2023-09-13T20:42:44.379Z,58.54
2023-09-13T20:44:47.660Z,58.93
2023-09-13T20:46:49.266Z,58.98
2023-09-13T20:48:50.917Z,59.10
2023-09-13T20:50:52.963Z,59.10
2023-09-13T20:52:54.831Z,58.91
2023-09-13T20:54:56.527Z,58.79
2023-09-13T20:56:59.660Z,59.02
2023-09-13T20:59:01.128Z,58.88
2023-09-13T21:01:02.715Z,59.22
2023-09-13T21:03:04.522Z,59.09
2023-09-13T21:05:06.233Z,58.98
2023-09-13T21:07:08.430Z,59.14
2023-09-13T21:09:10.109Z,59.13
2023-09-13T21:11:11.627Z,59.23
2023-09-13T21:13:13.344Z,58.84
2023-09-13T21:15:14.864Z,59.23
2023-09-13T21:17:16.311Z,58.96
2023-09-13T21:19:19.279Z,59.19
2023-09-13T21:21:20.949Z,58.81
2023-09-13T21:23:26.727Z,59.04
2023-09-13T21:25:28.506Z,58.67
2023-09-13T21:27:31.929Z,58.93
2023-09-13T21:29:33.482Z,58.74
2023-09-13T21:31:36.826Z,58.94
2023-09-13T21:33:38.542Z,58.67
2023-09-13T21:35:41.666Z,58.82
2023-09-13T21:37:43.181Z,58.95
2023-09-13T21:39:44.686Z,59.01
2023-09-13T21:41:47.437Z,59.04
2023-09-13T21:43:48.903Z,58.79
2023-09-13T21:45:51.021Z,58.84
2023-09-13T21:47:54.604Z,58.82
2023-09-13T21:49:56.172Z,58.85
2023-09-13T21:51:57.992Z,59.12
2023-09-13T21:53:59.810Z,58.90
2023-09-13T21:56:02.600Z,59.00
2023-09-13T21:58:04.681Z,58.84
2023-09-13T22:00:15.920Z,59.09
2023-09-13T22:02:17.535Z,58.96
2023-09-13T22:04:19.007Z,59.05
2023-09-13T22:06:20.488Z,58.83
2023-09-13T22:08:22.506Z,59.04
2023-09-13T22:10:24.312Z,58.88
2023-09-13T22:12:25.893Z,59.21
2023-09-13T22:14:27.414Z,59.13
2023-09-13T22:16:29.224Z,59.00
2023-09-13T22:18:30.937Z,58.94
2023-09-13T22:20:32.873Z,58.82
2023-09-13T22:22:35.311Z,58.95
2023-09-13T22:24:37.814Z,58.97
2023-09-13T22:26:39.932Z,58.82
2023-09-13T22:28:41.839Z,59.08
2023-09-13T22:30:43.361Z,59.05
2023-09-13T22:32:44.938Z,59.10
2023-09-13T22:34:46.567Z,58.97
2023-09-13T22:36:48.585Z,58.94
2023-09-13T22:39:02.148Z,59.06
2023-09-13T22:41:07.909Z,59.00
2023-09-13T22:43:09.532Z,59.07
2023-09-13T22:45:11.343Z,58.84
2023-09-13T22:47:13.022Z,58.72
2023-09-13T22:49:14.555Z,58.99
2023-09-13T22:51:16.177Z,59.00
2023-09-13T22:53:17.724Z,58.91
2023-09-13T22:55:19.330Z,58.99
2023-09-13T22:57:20.835Z,58.70
2023-09-13T22:59:23.305Z,59.05
2023-09-13T23:01:24.825Z,59.14
2023-09-13T23:03:42.221Z,58.89
2023-09-13T23:05:46.672Z,58.87
2023-09-13T23:07:54.597Z,58.89
2023-09-13T23:09:56.272Z,58.99
2023-09-13T23:11:57.796Z,59.28
2023-09-13T23:14:00.330Z,59.39
2023-09-13T23:16:06.909Z,59.10
2023-09-13T23:18:09.334Z,59.26
2023-09-13T23:20:13.193Z,59.13
2023-09-13T23:22:14.731Z,59.06
2023-09-13T23:24:17.879Z,59.12
2023-09-13T23:26:21.517Z,59.16
2023-09-13T23:28:23.011Z,59.31
2023-09-13T23:30:25.616Z,59.24
2023-09-13T23:32:28.421Z,59.18
2023-09-13T23:34:30.083Z,58.99
2023-09-13T23:36:31.820Z,59.08
2023-09-13T23:38:33.414Z,59.10
2023-09-13T23:40:38.059Z,59.28
2023-09-13T23:42:41.175Z,58.97
2023-09-13T23:44:42.718Z,59.31
2023-09-13T23:46:44.547Z,59.17
2023-09-13T23:48:46.541Z,59.42
2023-09-13T23:50:48.291Z,59.01
2023-09-13T23:52:49.762Z,59.13
2023-09-13T23:54:51.272Z,59.31
2023-09-13T23:56:52.815Z,59.37
2023-09-13T23:58:57.537Z,59.27
